sensor_id;sensor_type;location;lat;lon;timestamp;pressure;altitude;pressure_sealevel;temperature;humidity
55291;BME280;41155;39.768;2.712;2023-02-03T00:00:44;102681.84;;;7.13;70.05
55291;BME280;41155;39.768;2.712;2023-02-03T00:03:10;102691.94;;;7.11;70.67
55291;BME280;41155;39.768;2.712;2023-02-03T00:05:35;102685.63;;;6.81;71.78
55291;BME280;41155;39.768;2.712;2023-02-03T00:08:02;102685.38;;;6.91;72.11
55291;BME280;41155;39.768;2.712;2023-02-03T00:10:28;102684.59;;;6.82;72.07
55291;BME280;41155;39.768;2.712;2023-02-03T00:12:54;102664.91;;;6.67;72.87
55291;BME280;41155;39.768;2.712;2023-02-03T00:15:20;102686.13;;;6.76;72.60
55291;BME280;41155;39.768;2.712;2023-02-03T00:17:47;102688.06;;;6.91;72.06
55291;BME280;41155;39.768;2.712;2023-02-03T00:20:13;102683.66;;;6.98;72.57
55291;BME280;41155;39.768;2.712;2023-02-03T00:22:38;102683.41;;;7.08;70.86
55291;BME280;41155;39.768;2.712;2023-02-03T00:25:04;102682.47;;;6.77;71.49
55291;BME280;41155;39.768;2.712;2023-02-03T00:27:30;102659.88;;;6.64;71.85
55291;BME280;41155;39.768;2.712;2023-02-03T00:29:56;102672.56;;;6.47;73.13
55291;BME280;41155;39.768;2.712;2023-02-03T00:32:21;102673.03;;;6.50;73.04
55291;BME280;41155;39.768;2.712;2023-02-03T00:34:46;102672.09;;;6.43;73.62
55291;BME280;41155;39.768;2.712;2023-02-03T00:37:12;102667.50;;;6.83;71.59
55291;BME280;41155;39.768;2.712;2023-02-03T00:39:38;102669.13;;;6.61;72.31
55291;BME280;41155;39.768;2.712;2023-02-03T00:42:04;102673.47;;;6.62;72.37
55291;BME280;41155;39.768;2.712;2023-02-03T00:44:30;102670.28;;;6.36;73.38
55291;BME280;41155;39.768;2.712;2023-02-03T00:46:55;102673.72;;;6.52;73.35
55291;BME280;41155;39.768;2.712;2023-02-03T00:49:21;102660.59;;;6.57;73.05
55291;BME280;41155;39.768;2.712;2023-02-03T00:51:46;102662.53;;;6.72;73.02
55291;BME280;41155;39.768;2.712;2023-02-03T00:54:12;102662.59;;;6.24;73.98
55291;BME280;41155;39.768;2.712;2023-02-03T00:56:38;102651.03;;;6.24;74.75
55291;BME280;41155;39.768;2.712;2023-02-03T00:59:04;102668.06;;;6.39;74.90
55291;BME280;41155;39.768;2.712;2023-02-03T01:01:30;102647.19;;;6.26;75.27
55291;BME280;41155;39.768;2.712;2023-02-03T01:03:55;102663.22;;;6.43;75.22
55291;BME280;41155;39.768;2.712;2023-02-03T01:06:22;102669.22;;;6.45;75.23
55291;BME280;41155;39.768;2.712;2023-02-03T01:08:48;102660.84;;;6.71;73.47
55291;BME280;41155;39.768;2.712;2023-02-03T01:11:16;102661.91;;;6.30;75.46
55291;BME280;41155;39.768;2.712;2023-02-03T01:13:43;102655.88;;;6.37;75.68
55291;BME280;41155;39.768;2.712;2023-02-03T01:16:10;102644.09;;;6.38;75.20
55291;BME280;41155;39.768;2.712;2023-02-03T01:18:36;102650.94;;;6.48;74.52
55291;BME280;41155;39.768;2.712;2023-02-03T01:21:14;102636.81;;;6.54;73.64
55291;BME280;41155;39.768;2.712;2023-02-03T01:23:41;102661.31;;;6.51;74.01
55291;BME280;41155;39.768;2.712;2023-02-03T01:26:09;102637.59;;;6.32;74.85
55291;BME280;41155;39.768;2.712;2023-02-03T01:28:35;102662.63;;;6.55;74.61
55291;BME280;41155;39.768;2.712;2023-02-03T01:31:15;102676.00;;;6.64;74.08
55291;BME280;41155;39.768;2.712;2023-02-03T01:33:42;102661.81;;;6.47;74.64
55291;BME280;41155;39.768;2.712;2023-02-03T01:36:10;102629.47;;;6.48;74.97
55291;BME280;41155;39.768;2.712;2023-02-03T01:38:37;102647.94;;;6.04;77.32
55291;BME280;41155;39.768;2.712;2023-02-03T01:41:05;102638.19;;;6.19;77.77
55291;BME280;41155;39.768;2.712;2023-02-03T01:43:33;102627.56;;;6.26;77.81
55291;BME280;41155;39.768;2.712;2023-02-03T01:46:03;102628.78;;;6.46;77.08
55291;BME280;41155;39.768;2.712;2023-02-03T01:48:31;102620.28;;;6.66;76.26
55291;BME280;41155;39.768;2.712;2023-02-03T01:51:01;102602.34;;;6.35;75.99
55291;BME280;41155;39.768;2.712;2023-02-03T01:53:26;102621.34;;;6.56;75.51
55291;BME280;41155;39.768;2.712;2023-02-03T01:55:52;102629.59;;;6.55;75.53
55291;BME280;41155;39.768;2.712;2023-02-03T01:58:24;102627.72;;;6.55;75.26
55291;BME280;41155;39.768;2.712;2023-02-03T02:00:53;102620.34;;;6.57;74.95
55291;BME280;41155;39.768;2.712;2023-02-03T02:03:25;102642.34;;;6.76;73.67
55291;BME280;41155;39.768;2.712;2023-02-03T02:06:18;102648.47;;;6.62;73.46
55291;BME280;41155;39.768;2.712;2023-02-03T02:08:47;102645.66;;;5.84;76.33
55291;BME280;41155;39.768;2.712;2023-02-03T02:11:13;102609.22;;;6.06;76.56
55291;BME280;41155;39.768;2.712;2023-02-03T02:13:40;102629.91;;;6.29;75.93
55291;BME280;41155;39.768;2.712;2023-02-03T02:16:29;102643.53;;;6.19;77.55
55291;BME280;41155;39.768;2.712;2023-02-03T02:32:59;102624.69;;;6.27;75.99
55291;BME280;41155;39.768;2.712;2023-02-03T02:35:47;102630.72;;;6.29;76.47
55291;BME280;41155;39.768;2.712;2023-02-03T02:38:56;102634.19;;;6.38;76.48
55291;BME280;41155;39.768;2.712;2023-02-03T02:46:46;102637.44;;;6.56;75.94
55291;BME280;41155;39.768;2.712;2023-02-03T02:51:43;102618.00;;;6.54;75.86
55291;BME280;41155;39.768;2.712;2023-02-03T02:54:14;102621.41;;;6.48;76.34
55291;BME280;41155;39.768;2.712;2023-02-03T02:56:42;102620.81;;;6.84;75.10
55291;BME280;41155;39.768;2.712;2023-02-03T02:59:09;102613.19;;;6.73;75.19
55291;BME280;41155;39.768;2.712;2023-02-03T03:01:35;102619.25;;;6.44;76.64
55291;BME280;41155;39.768;2.712;2023-02-03T03:04:04;102610.06;;;6.61;76.55
55291;BME280;41155;39.768;2.712;2023-02-03T03:07:01;102608.47;;;6.75;75.96
55291;BME280;41155;39.768;2.712;2023-02-03T03:09:52;102610.28;;;6.60;75.19
55291;BME280;41155;39.768;2.712;2023-02-03T03:12:31;102604.19;;;6.66;75.25
55291;BME280;41155;39.768;2.712;2023-02-03T03:15:10;102608.06;;;6.86;74.09
55291;BME280;41155;39.768;2.712;2023-02-03T03:17:46;102586.44;;;6.79;74.50
55291;BME280;41155;39.768;2.712;2023-02-03T03:20:20;102610.75;;;6.63;75.32
55291;BME280;41155;39.768;2.712;2023-02-03T03:23:01;102602.75;;;6.78;74.96
55291;BME280;41155;39.768;2.712;2023-02-03T03:25:48;102608.31;;;6.91;74.70
55291;BME280;41155;39.768;2.712;2023-02-03T03:28:21;102573.31;;;6.62;75.12
55291;BME280;41155;39.768;2.712;2023-02-03T03:30:51;102580.19;;;6.87;74.73
55291;BME280;41155;39.768;2.712;2023-02-03T03:33:17;102603.31;;;7.26;73.13
55291;BME280;41155;39.768;2.712;2023-02-03T03:35:45;102612.22;;;7.12;73.61
55291;BME280;41155;39.768;2.712;2023-02-03T03:38:31;102600.97;;;7.08;73.78
55291;BME280;41155;39.768;2.712;2023-02-03T03:41:07;102611.47;;;7.18;73.80
55291;BME280;41155;39.768;2.712;2023-02-03T03:43:38;102591.34;;;7.14;73.20
55291;BME280;41155;39.768;2.712;2023-02-03T03:46:18;102605.56;;;7.37;72.73
55291;BME280;41155;39.768;2.712;2023-02-03T03:51:29;102614.94;;;7.41;73.24
55291;BME280;41155;39.768;2.712;2023-02-03T03:54:01;102604.72;;;7.66;72.08
55291;BME280;41155;39.768;2.712;2023-02-03T03:56:32;102617.25;;;7.59;72.03
55291;BME280;41155;39.768;2.712;2023-02-03T03:59:02;102591.78;;;7.55;71.58
55291;BME280;41155;39.768;2.712;2023-02-03T04:01:28;102611.22;;;7.57;72.12
55291;BME280;41155;39.768;2.712;2023-02-03T04:03:57;102609.75;;;7.55;72.08
55291;BME280;41155;39.768;2.712;2023-02-03T04:06:24;102604.72;;;7.52;72.02
55291;BME280;41155;39.768;2.712;2023-02-03T04:08:50;102612.34;;;7.63;72.14
55291;BME280;41155;39.768;2.712;2023-02-03T04:11:15;102601.97;;;7.60;72.09
55291;BME280;41155;39.768;2.712;2023-02-03T04:14:01;102607.53;;;7.58;71.89
55291;BME280;41155;39.768;2.712;2023-02-03T04:16:28;102607.53;;;7.43;72.38
55291;BME280;41155;39.768;2.712;2023-02-03T04:18:56;102616.88;;;7.47;72.46
55291;BME280;41155;39.768;2.712;2023-02-03T04:21:22;102629.88;;;7.44;72.56
55291;BME280;41155;39.768;2.712;2023-02-03T04:23:47;102636.63;;;7.55;72.93
55291;BME280;41155;39.768;2.712;2023-02-03T04:26:13;102622.94;;;7.50;72.79
55291;BME280;41155;39.768;2.712;2023-02-03T04:28:38;102617.25;;;7.74;72.48
55291;BME280;41155;39.768;2.712;2023-02-03T04:31:03;102601.50;;;7.86;71.60
55291;BME280;41155;39.768;2.712;2023-02-03T04:33:29;102607.13;;;8.06;70.83
55291;BME280;41155;39.768;2.712;2023-02-03T04:35:54;102612.03;;;8.17;69.95
55291;BME280;41155;39.768;2.712;2023-02-03T04:38:20;102615.03;;;8.44;69.60
55291;BME280;41155;39.768;2.712;2023-02-03T04:40:45;102598.34;;;8.33;69.51
55291;BME280;41155;39.768;2.712;2023-02-03T04:43:11;102610.88;;;8.41;69.56
55291;BME280;41155;39.768;2.712;2023-02-03T04:45:38;102614.41;;;8.42;69.22
55291;BME280;41155;39.768;2.712;2023-02-03T04:48:03;102601.88;;;8.34;69.35
55291;BME280;41155;39.768;2.712;2023-02-03T04:50:30;102617.75;;;8.44;69.11
55291;BME280;41155;39.768;2.712;2023-02-03T04:52:55;102608.97;;;8.78;67.18
55291;BME280;41155;39.768;2.712;2023-02-03T04:55:24;102601.78;;;8.85;66.88
55291;BME280;41155;39.768;2.712;2023-02-03T04:57:57;102595.69;;;8.76;67.89
55291;BME280;41155;39.768;2.712;2023-02-03T05:00:22;102590.38;;;8.83;67.85
55291;BME280;41155;39.768;2.712;2023-02-03T05:02:48;102596.34;;;9.00;67.60
55291;BME280;41155;39.768;2.712;2023-02-03T05:05:14;102600.69;;;9.01;67.33
55291;BME280;41155;39.768;2.712;2023-02-03T05:07:39;102601.72;;;9.00;67.35
55291;BME280;41155;39.768;2.712;2023-02-03T05:10:05;102591.09;;;8.92;67.71
55291;BME280;41155;39.768;2.712;2023-02-03T05:12:30;102557.84;;;8.85;67.50
55291;BME280;41155;39.768;2.712;2023-02-03T05:14:56;102601.25;;;8.96;67.48
55291;BME280;41155;39.768;2.712;2023-02-03T05:17:21;102612.50;;;9.00;67.50
55291;BME280;41155;39.768;2.712;2023-02-03T05:19:47;102613.13;;;9.02;67.04
55291;BME280;41155;39.768;2.712;2023-02-03T05:22:12;102596.94;;;9.02;66.95
55291;BME280;41155;39.768;2.712;2023-02-03T05:24:38;102616.41;;;8.97;66.94
55291;BME280;41155;39.768;2.712;2023-02-03T05:27:03;102613.03;;;8.89;67.15
55291;BME280;41155;39.768;2.712;2023-02-03T05:29:29;102617.00;;;8.93;66.88
55291;BME280;41155;39.768;2.712;2023-02-03T05:31:54;102625.84;;;8.87;67.01
55291;BME280;41155;39.768;2.712;2023-02-03T05:34:20;102633.53;;;8.90;66.73
55291;BME280;41155;39.768;2.712;2023-02-03T05:36:45;102630.00;;;8.89;66.78
55291;BME280;41155;39.768;2.712;2023-02-03T05:39:10;102621.50;;;8.86;66.72
55291;BME280;41155;39.768;2.712;2023-02-03T05:41:36;102620.78;;;8.77;66.73
55291;BME280;41155;39.768;2.712;2023-02-03T05:44:26;102613.31;;;8.79;66.58
55291;BME280;41155;39.768;2.712;2023-02-03T05:46:55;102630.97;;;8.81;66.77
55291;BME280;41155;39.768;2.712;2023-02-03T05:49:23;102561.78;;;8.24;66.21
55291;BME280;41155;39.768;2.712;2023-02-03T05:51:50;102593.41;;;8.37;66.39
55291;BME280;41155;39.768;2.712;2023-02-03T05:54:16;102638.78;;;8.76;66.44
55291;BME280;41155;39.768;2.712;2023-02-03T05:56:41;102636.38;;;8.60;67.13
55291;BME280;41155;39.768;2.712;2023-02-03T05:59:07;102653.53;;;8.59;67.40
55291;BME280;41155;39.768;2.712;2023-02-03T06:01:33;102629.66;;;8.56;67.37
55291;BME280;41155;39.768;2.712;2023-02-03T06:03:59;102645.81;;;8.20;68.50
55291;BME280;41155;39.768;2.712;2023-02-03T06:06:25;102640.97;;;8.45;67.78
55291;BME280;41155;39.768;2.712;2023-02-03T06:08:58;102654.44;;;8.45;67.44
55291;BME280;41155;39.768;2.712;2023-02-03T06:11:24;102640.75;;;8.46;67.84
55291;BME280;41155;39.768;2.712;2023-02-03T06:13:50;102652.69;;;8.58;67.41
55291;BME280;41155;39.768;2.712;2023-02-03T06:16:15;102642.25;;;8.70;66.94
55291;BME280;41155;39.768;2.712;2023-02-03T06:18:41;102646.22;;;8.53;67.49
55291;BME280;41155;39.768;2.712;2023-02-03T06:21:07;102652.41;;;8.02;69.32
55291;BME280;41155;39.768;2.712;2023-02-03T06:23:32;102633.84;;;7.92;69.42
55291;BME280;41155;39.768;2.712;2023-02-03T06:25:58;102654.44;;;8.15;69.15
55291;BME280;41155;39.768;2.712;2023-02-03T06:28:26;102660.03;;;7.99;69.72
55291;BME280;41155;39.768;2.712;2023-02-03T06:30:52;102657.50;;;8.12;69.30
55291;BME280;41155;39.768;2.712;2023-02-03T06:33:18;102666.59;;;7.96;68.98
55291;BME280;41155;39.768;2.712;2023-02-03T06:35:44;102668.34;;;7.89;69.15
55291;BME280;41155;39.768;2.712;2023-02-03T06:38:09;102672.81;;;7.97;68.51
55291;BME280;41155;39.768;2.712;2023-02-03T06:40:35;102676.72;;;7.79;69.61
55291;BME280;41155;39.768;2.712;2023-02-03T06:43:00;102647.50;;;7.76;69.32
55291;BME280;41155;39.768;2.712;2023-02-03T06:45:26;102690.81;;;7.81;70.21
55291;BME280;41155;39.768;2.712;2023-02-03T06:47:51;102674.19;;;7.63;70.24
55291;BME280;41155;39.768;2.712;2023-02-03T06:50:17;102677.81;;;7.70;70.52
55291;BME280;41155;39.768;2.712;2023-02-03T06:52:43;102688.94;;;7.67;70.61
55291;BME280;41155;39.768;2.712;2023-02-03T06:55:09;102712.03;;;7.61;70.64
55291;BME280;41155;39.768;2.712;2023-02-03T06:57:35;102705.59;;;7.47;70.70
55291;BME280;41155;39.768;2.712;2023-02-03T07:00:01;102705.53;;;7.56;70.68
55291;BME280;41155;39.768;2.712;2023-02-03T07:02:26;102700.44;;;7.61;71.04
55291;BME280;41155;39.768;2.712;2023-02-03T07:04:58;102717.03;;;7.64;70.31
55291;BME280;41155;39.768;2.712;2023-02-03T07:07:23;102709.97;;;7.25;71.78
55291;BME280;41155;39.768;2.712;2023-02-03T07:09:51;102701.19;;;7.32;71.85
55291;BME280;41155;39.768;2.712;2023-02-03T07:12:17;102709.38;;;7.15;72.53
55291;BME280;41155;39.768;2.712;2023-02-03T07:14:42;102711.75;;;7.33;72.30
55291;BME280;41155;39.768;2.712;2023-02-03T07:17:08;102710.03;;;7.17;72.86
55291;BME280;41155;39.768;2.712;2023-02-03T07:19:33;102737.13;;;7.54;72.48
55291;BME280;41155;39.768;2.712;2023-02-03T07:21:58;102730.50;;;7.41;72.10
55291;BME280;41155;39.768;2.712;2023-02-03T07:24:24;102730.69;;;7.40;72.70
55291;BME280;41155;39.768;2.712;2023-02-03T07:26:49;102734.41;;;7.16;72.69
55291;BME280;41155;39.768;2.712;2023-02-03T07:29:15;102732.22;;;7.34;72.84
55291;BME280;41155;39.768;2.712;2023-02-03T07:31:40;102738.63;;;7.33;72.36
55291;BME280;41155;39.768;2.712;2023-02-03T07:34:06;102745.44;;;7.44;72.00
55291;BME280;41155;39.768;2.712;2023-02-03T07:36:32;102751.75;;;7.51;71.90
55291;BME280;41155;39.768;2.712;2023-02-03T07:38:57;102747.34;;;7.58;72.07
55291;BME280;41155;39.768;2.712;2023-02-03T07:41:23;102740.59;;;7.39;72.26
55291;BME280;41155;39.768;2.712;2023-02-03T07:43:48;102754.44;;;7.51;72.32
55291;BME280;41155;39.768;2.712;2023-02-03T07:46:14;102753.78;;;7.49;72.59
55291;BME280;41155;39.768;2.712;2023-02-03T07:48:39;102760.00;;;7.50;71.76
55291;BME280;41155;39.768;2.712;2023-02-03T07:51:05;102761.00;;;7.48;72.09
55291;BME280;41155;39.768;2.712;2023-02-03T07:53:31;102760.59;;;7.60;71.78
55291;BME280;41155;39.768;2.712;2023-02-03T07:56:03;102759.13;;;7.72;70.92
55291;BME280;41155;39.768;2.712;2023-02-03T07:58:30;102740.00;;;7.52;71.97
55291;BME280;41155;39.768;2.712;2023-02-03T08:00:56;102751.06;;;7.72;71.97
55291;BME280;41155;39.768;2.712;2023-02-03T08:03:21;102754.81;;;7.48;72.78
55291;BME280;41155;39.768;2.712;2023-02-03T08:05:47;102769.78;;;7.65;72.49
55291;BME280;41155;39.768;2.712;2023-02-03T08:08:13;102774.78;;;7.68;72.77
55291;BME280;41155;39.768;2.712;2023-02-03T08:10:38;102771.75;;;7.86;71.81
55291;BME280;41155;39.768;2.712;2023-02-03T08:13:06;102763.31;;;7.89;71.53
55291;BME280;41155;39.768;2.712;2023-02-03T08:15:32;102772.66;;;7.64;72.94
55291;BME280;41155;39.768;2.712;2023-02-03T08:17:57;102783.47;;;7.56;73.45
55291;BME280;41155;39.768;2.712;2023-02-03T08:20:23;102776.25;;;7.56;74.34
55291;BME280;41155;39.768;2.712;2023-02-03T08:22:49;102774.44;;;7.72;74.05
55291;BME280;41155;39.768;2.712;2023-02-03T08:25:14;102783.25;;;7.80;73.77
55291;BME280;41155;39.768;2.712;2023-02-03T08:27:40;102760.94;;;7.95;73.11
55291;BME280;41155;39.768;2.712;2023-02-03T08:30:09;102784.53;;;8.07;73.16
55291;BME280;41155;39.768;2.712;2023-02-03T08:32:36;102738.78;;;7.55;73.50
55291;BME280;41155;39.768;2.712;2023-02-03T08:35:01;102770.91;;;7.71;74.15
55291;BME280;41155;39.768;2.712;2023-02-03T08:37:27;102791.91;;;7.90;73.71
55291;BME280;41155;39.768;2.712;2023-02-03T08:39:55;102787.75;;;7.88;73.85
55291;BME280;41155;39.768;2.712;2023-02-03T08:42:21;102796.56;;;7.97;73.95
55291;BME280;41155;39.768;2.712;2023-02-03T08:44:46;102791.22;;;8.26;73.31
55291;BME280;41155;39.768;2.712;2023-02-03T08:47:13;102799.31;;;8.56;72.85
55291;BME280;41155;39.768;2.712;2023-02-03T08:49:39;102810.91;;;8.86;72.01
55291;BME280;41155;39.768;2.712;2023-02-03T08:52:09;102751.81;;;8.85;70.49
55291;BME280;41155;39.768;2.712;2023-02-03T08:54:36;102809.56;;;9.33;70.33
55291;BME280;41155;39.768;2.712;2023-02-03T08:57:02;102805.38;;;9.73;68.45
55291;BME280;41155;39.768;2.712;2023-02-03T08:59:28;102818.81;;;9.95;68.33
55291;BME280;41155;39.768;2.712;2023-02-03T09:01:54;102819.03;;;10.22;67.52
55291;BME280;41155;39.768;2.712;2023-02-03T09:04:20;102817.66;;;10.32;66.86
55291;BME280;41155;39.768;2.712;2023-02-03T09:06:50;102827.22;;;10.70;66.08
55291;BME280;41155;39.768;2.712;2023-02-03T09:09:16;102822.16;;;10.95;65.21
55291;BME280;41155;39.768;2.712;2023-02-03T09:11:42;102835.91;;;11.06;64.78
55291;BME280;41155;39.768;2.712;2023-02-03T09:14:08;102828.69;;;11.27;64.38
55291;BME280;41155;39.768;2.712;2023-02-03T09:16:34;102843.97;;;11.54;63.60
55291;BME280;41155;39.768;2.712;2023-02-03T09:18:59;102834.63;;;11.84;62.54
55291;BME280;41155;39.768;2.712;2023-02-03T09:21:25;102845.88;;;12.14;60.71
55291;BME280;41155;39.768;2.712;2023-02-03T09:23:50;102844.84;;;12.21;60.66
55291;BME280;41155;39.768;2.712;2023-02-03T09:26:16;102838.50;;;12.68;59.86
55291;BME280;41155;39.768;2.712;2023-02-03T09:28:42;102854.19;;;13.10;58.81
55291;BME280;41155;39.768;2.712;2023-02-03T09:31:12;102851.69;;;13.47;57.49
55291;BME280;41155;39.768;2.712;2023-02-03T09:33:39;102845.69;;;13.70;57.20
55291;BME280;41155;39.768;2.712;2023-02-03T09:36:06;102842.03;;;14.08;56.05
55291;BME280;41155;39.768;2.712;2023-02-03T09:38:33;102826.63;;;14.45;55.42
55291;BME280;41155;39.768;2.712;2023-02-03T09:46:50;102838.63;;;15.84;52.17
55291;BME280;41155;39.768;2.712;2023-02-03T09:52:01;102839.09;;;17.77;48.27
55291;BME280;41155;39.768;2.712;2023-02-03T09:54:42;102828.13;;;18.89;45.61
55291;BME280;41155;39.768;2.712;2023-02-03T09:57:20;102831.69;;;20.03;43.05
55291;BME280;41155;39.768;2.712;2023-02-03T09:59:46;102840.69;;;20.98;40.06
55291;BME280;41155;39.768;2.712;2023-02-03T10:07:37;102814.91;;;23.37;34.34
55291;BME280;41155;39.768;2.712;2023-02-03T10:10:17;102834.31;;;23.95;33.61
55291;BME280;41155;39.768;2.712;2023-02-03T10:12:54;102826.03;;;24.48;32.83
55291;BME280;41155;39.768;2.712;2023-02-03T10:15:43;102832.94;;;25.32;29.19
55291;BME280;41155;39.768;2.712;2023-02-03T10:18:17;102846.88;;;25.92;29.37
55291;BME280;41155;39.768;2.712;2023-02-03T10:20:48;102841.19;;;26.16;28.93
55291;BME280;41155;39.768;2.712;2023-02-03T10:23:36;102843.25;;;26.52;29.36
55291;BME280;41155;39.768;2.712;2023-02-03T10:26:09;102837.78;;;26.88;28.54
55291;BME280;41155;39.768;2.712;2023-02-03T10:28:47;102845.81;;;27.12;28.18
55291;BME280;41155;39.768;2.712;2023-02-03T10:31:27;102823.19;;;27.33;27.97
55291;BME280;41155;39.768;2.712;2023-02-03T10:34:11;102843.84;;;27.94;26.87
55291;BME280;41155;39.768;2.712;2023-02-03T10:42:02;102839.66;;;28.05;26.76
55291;BME280;41155;39.768;2.712;2023-02-03T10:44:55;102849.53;;;27.21;27.80
55291;BME280;41155;39.768;2.712;2023-02-03T10:47:43;102838.25;;;26.54;28.73
55291;BME280;41155;39.768;2.712;2023-02-03T10:50:18;102848.56;;;26.07;29.99
55291;BME280;41155;39.768;2.712;2023-02-03T10:52:45;102836.50;;;25.32;30.95
55291;BME280;41155;39.768;2.712;2023-02-03T10:57:45;102841.91;;;25.75;30.49
55291;BME280;41155;39.768;2.712;2023-02-03T11:02:43;102826.09;;;26.77;28.30
55291;BME280;41155;39.768;2.712;2023-02-03T11:05:20;102823.06;;;28.23;26.55
55291;BME280;41155;39.768;2.712;2023-02-03T11:07:49;102827.38;;;27.98;26.31
55291;BME280;41155;39.768;2.712;2023-02-03T11:10:35;102824.38;;;28.65;25.56
55291;BME280;41155;39.768;2.712;2023-02-03T11:13:18;102823.81;;;29.93;24.43
55291;BME280;41155;39.768;2.712;2023-02-03T11:16:02;102817.00;;;30.80;22.88
55291;BME280;41155;39.768;2.712;2023-02-03T11:21:17;102813.97;;;31.27;21.99
55291;BME280;41155;39.768;2.712;2023-02-03T11:26:23;102820.03;;;32.57;21.36
55291;BME280;41155;39.768;2.712;2023-02-03T11:28:51;102805.00;;;32.61;21.07
55291;BME280;41155;39.768;2.712;2023-02-03T11:31:37;102811.75;;;31.99;21.76
55291;BME280;41155;39.768;2.712;2023-02-03T11:34:06;102811.47;;;32.90;20.84
55291;BME280;41155;39.768;2.712;2023-02-03T11:36:38;102802.94;;;32.99;20.13
55291;BME280;41155;39.768;2.712;2023-02-03T11:39:16;102750.78;;;32.66;20.75
55291;BME280;41155;39.768;2.712;2023-02-03T11:41:42;102791.03;;;33.30;19.83
55291;BME280;41155;39.768;2.712;2023-02-03T11:44:16;102797.25;;;33.83;20.16
55291;BME280;41155;39.768;2.712;2023-02-03T11:46:43;102801.75;;;34.35;19.53
55291;BME280;41155;39.768;2.712;2023-02-03T12:12:34;102757.34;;;37.72;15.82
55291;BME280;41155;39.768;2.712;2023-02-03T12:20:29;102759.31;;;38.16;15.29
55291;BME280;41155;39.768;2.712;2023-02-03T12:23:07;102753.06;;;38.48;14.81
55291;BME280;41155;39.768;2.712;2023-02-03T12:28:38;102744.41;;;39.25;14.50
55291;BME280;41155;39.768;2.712;2023-02-03T12:34:03;102746.84;;;39.33;14.07
55291;BME280;41155;39.768;2.712;2023-02-03T12:37:16;102746.38;;;38.88;14.29
55291;BME280;41155;39.768;2.712;2023-02-03T12:39:59;102734.31;;;39.20;13.85
55291;BME280;41155;39.768;2.712;2023-02-03T12:42:31;102727.91;;;39.38;14.05
55291;BME280;41155;39.768;2.712;2023-02-03T12:45:04;102710.53;;;39.82;13.48
55291;BME280;41155;39.768;2.712;2023-02-03T12:53:14;102713.38;;;39.46;13.88
55291;BME280;41155;39.768;2.712;2023-02-03T12:55:45;102722.63;;;39.43;13.82
55291;BME280;41155;39.768;2.712;2023-02-03T12:58:22;102701.25;;;39.35;13.94
55291;BME280;41155;39.768;2.712;2023-02-03T13:01:19;102714.16;;;39.40;13.80
55291;BME280;41155;39.768;2.712;2023-02-03T13:06:43;102702.50;;;36.77;16.28
55291;BME280;41155;39.768;2.712;2023-02-03T13:09:27;102698.28;;;34.88;17.63
55291;BME280;41155;39.768;2.712;2023-02-03T13:15:11;102688.72;;;31.83;21.20
55291;BME280;41155;39.768;2.712;2023-02-03T13:17:45;102658.28;;;30.54;22.23
55291;BME280;41155;39.768;2.712;2023-02-03T13:20:21;102677.63;;;29.79;23.76
55291;BME280;41155;39.768;2.712;2023-02-03T13:22:47;102692.34;;;29.32;24.46
55291;BME280;41155;39.768;2.712;2023-02-03T13:38:38;102665.44;;;29.92;24.38
55291;BME280;41155;39.768;2.712;2023-02-03T13:43:46;102665.69;;;27.92;27.24
55291;BME280;41155;39.768;2.712;2023-02-03T13:46:29;102662.97;;;27.07;28.17
55291;BME280;41155;39.768;2.712;2023-02-03T13:48:58;102665.97;;;26.52;29.75
55291;BME280;41155;39.768;2.712;2023-02-03T13:51:54;102667.59;;;25.89;30.52
55291;BME280;41155;39.768;2.712;2023-02-03T13:54:26;102662.53;;;25.03;31.91
55291;BME280;41155;39.768;2.712;2023-02-03T13:56:58;102661.75;;;24.65;32.94
55291;BME280;41155;39.768;2.712;2023-02-03T13:59:42;102662.66;;;23.98;34.39
55291;BME280;41155;39.768;2.712;2023-02-03T14:04:50;102669.28;;;24.40;33.36
55291;BME280;41155;39.768;2.712;2023-02-03T14:07:33;102663.03;;;25.05;32.24
55291;BME280;41155;39.768;2.712;2023-02-03T14:12:58;102662.56;;;25.63;31.02
55291;BME280;41155;39.768;2.712;2023-02-03T14:18:00;102673.78;;;25.25;31.32
55291;BME280;41155;39.768;2.712;2023-02-03T14:22:58;102660.53;;;24.14;33.17
55291;BME280;41155;39.768;2.712;2023-02-03T14:25:24;102666.69;;;23.87;33.96
55291;BME280;41155;39.768;2.712;2023-02-03T14:28:04;102662.41;;;23.46;34.55
55291;BME280;41155;39.768;2.712;2023-02-03T14:30:32;102656.75;;;23.33;34.76
55291;BME280;41155;39.768;2.712;2023-02-03T14:32:59;102658.16;;;23.01;35.46
55291;BME280;41155;39.768;2.712;2023-02-03T14:35:35;102652.31;;;22.68;36.25
55291;BME280;41155;39.768;2.712;2023-02-03T14:38:05;102651.63;;;21.82;36.97
55291;BME280;41155;39.768;2.712;2023-02-03T14:40:53;102648.72;;;21.53;37.81
55291;BME280;41155;39.768;2.712;2023-02-03T14:43:30;102654.50;;;21.16;38.34
55291;BME280;41155;39.768;2.712;2023-02-03T14:46:35;102650.38;;;20.72;39.32
55291;BME280;41155;39.768;2.712;2023-02-03T14:49:26;102657.25;;;20.75;40.19
55291;BME280;41155;39.768;2.712;2023-02-03T15:00:07;102662.59;;;20.39;41.05
55291;BME280;41155;39.768;2.712;2023-02-03T15:05:54;102659.28;;;20.27;40.94
55291;BME280;41155;39.768;2.712;2023-02-03T15:08:44;102666.66;;;20.11;40.88
55291;BME280;41155;39.768;2.712;2023-02-03T15:11:30;102660.03;;;20.02;40.95
55291;BME280;41155;39.768;2.712;2023-02-03T15:14:21;102666.44;;;20.28;40.64
55291;BME280;41155;39.768;2.712;2023-02-03T15:16:51;102664.78;;;20.27;40.88
55291;BME280;41155;39.768;2.712;2023-02-03T15:19:19;102665.34;;;20.39;40.44
55291;BME280;41155;39.768;2.712;2023-02-03T15:21:46;102664.09;;;20.88;39.58
55291;BME280;41155;39.768;2.712;2023-02-03T15:24:16;102651.50;;;21.38;38.62
55291;BME280;41155;39.768;2.712;2023-02-03T15:26:49;102664.03;;;21.75;37.93
55291;BME280;41155;39.768;2.712;2023-02-03T15:29:35;102656.13;;;21.27;38.86
55291;BME280;41155;39.768;2.712;2023-02-03T15:32:14;102668.75;;;20.62;40.26